F/V Carmalia — FMFK — position and weather

sailwx.info

Track history (hours):
 
Tides and Currents Weather Stations Pressure Air Temp Water Temp Dewpoint Dewpoint Depression Visibility Wind Speed Wind Dir Waves Ship Positions

F/V Carmalia

Last reported at 2015-Aug-22 01:28 UTC. Time now 2015-Sep-04 10:22 UTC.
Position N 45°16' W 003°29'.
Warning: this ship's position is 13 days out of date.

Length 17 m.

Type: Fishing. MMSI: 228222900.

Date/timePositionNaut miles runAvg speedWind from/ knotsBaromVisibWave heightAir tempDewpointWater temp
2015-Aug-22 01:28N 45°16' W 003°29'7 7.9
2015-Aug-22 00:33N 45°09' W 003°26'11 3.7
2015-Aug-21 21:33N 44°59' W 003°32'16 6.6
2015-Aug-21 19:06N 45°11' W 003°46'4 6.7
2015-Aug-21 18:32N 45°11' W 003°52'7 7.0
2015-Aug-21 17:33N 45°11' W 004°02'4 4.1
2015-Aug-21 16:33N 45°11' W 004°07'6 5.9
2015-Aug-21 15:33N 45°13' W 003°60'0 0.3
2015-Aug-21 14:33N 45°13' W 003°60'1 0.7
2015-Aug-21 13:31N 45°13' W 003°60'1 0.7
2015-Aug-21 12:33N 45°12' W 003°59'16 4.8
2015-Aug-21 09:18N 45°26' W 003°51'5 6.6
2015-Aug-21 08:33N 45°31' W 003°50'6 6.1
2015-Aug-21 07:33N 45°36' W 003°56'30 7.2
2015-Aug-21 03:28N 45°49' W 004°34'  
2015-Aug-18 14:32N 47°40' W 004°17'10 9.3
2015-Aug-18 13:31N 47°38' W 004°03'9 9.4
2015-Aug-18 12:33N 47°39' W 003°49'9 9.3
2015-Aug-18 11:33N 47°41' W 003°36'9 9.3
2015-Aug-18 10:33N 47°42' W 003°22'1 1.4
2015-Aug-18 09:33N 47°44' W 003°22'0 0.0
2015-Aug-18 08:33N 47°44' W 003°22'0 0.0
2015-Aug-17 17:14N 47°44' W 003°22'0 0.1
2015-Aug-17 16:33N 47°44' W 003°22'0 0.1
2015-Aug-17 15:33N 47°44' W 003°22'0 0.1
2015-Aug-17 14:33N 47°44' W 003°22'1010.3
2015-Aug-17 13:33N 47°33' W 003°24'1010.2
2015-Aug-17 12:33N 47°23' W 003°28'1010.3
2015-Aug-17 11:33N 47°13' W 003°31'  
Track history (hours):
 
Tides and Currents Weather Stations Pressure Air Temp Water Temp Dewpoint Dewpoint Depression Visibility Wind Speed Wind Dir Waves Ship Positions

F/V Carmalia

Last reported at 2015-Aug-22 01:28 UTC. Time now 2015-Sep-04 10:22 UTC.
Position N 45°16' W 003°29'.
Warning: this ship's position is 13 days out of date.

Length 17 m.

Type: Fishing. MMSI: 228222900.

Date/timePositionNaut miles runAvg speedWind from/ knotsBaromVisibWave heightAir tempDewpointWater temp
2015-Aug-22 01:28N 45°16' W 003°29'7 7.9
2015-Aug-22 00:33N 45°09' W 003°26'11 3.7
2015-Aug-21 21:33N 44°59' W 003°32'16 6.6
2015-Aug-21 19:06N 45°11' W 003°46'4 6.7
2015-Aug-21 18:32N 45°11' W 003°52'7 7.0
2015-Aug-21 17:33N 45°11' W 004°02'4 4.1
2015-Aug-21 16:33N 45°11' W 004°07'6 5.9
2015-Aug-21 15:33N 45°13' W 003°60'0 0.3
2015-Aug-21 14:33N 45°13' W 003°60'1 0.7
2015-Aug-21 13:31N 45°13' W 003°60'1 0.7
2015-Aug-21 12:33N 45°12' W 003°59'16 4.8
2015-Aug-21 09:18N 45°26' W 003°51'5 6.6
2015-Aug-21 08:33N 45°31' W 003°50'6 6.1
2015-Aug-21 07:33N 45°36' W 003°56'30 7.2
2015-Aug-21 03:28N 45°49' W 004°34'  
2015-Aug-18 14:32N 47°40' W 004°17'10 9.3
2015-Aug-18 13:31N 47°38' W 004°03'9 9.4
2015-Aug-18 12:33N 47°39' W 003°49'9 9.3
2015-Aug-18 11:33N 47°41' W 003°36'9 9.3
2015-Aug-18 10:33N 47°42' W 003°22'1 1.4
2015-Aug-18 09:33N 47°44' W 003°22'0 0.0
2015-Aug-18 08:33N 47°44' W 003°22'0 0.0
2015-Aug-17 17:14N 47°44' W 003°22'0 0.1
2015-Aug-17 16:33N 47°44' W 003°22'0 0.1
2015-Aug-17 15:33N 47°44' W 003°22'0 0.1
2015-Aug-17 14:33N 47°44' W 003°22'1010.3
2015-Aug-17 13:33N 47°33' W 003°24'1010.2
2015-Aug-17 12:33N 47°23' W 003°28'1010.3
2015-Aug-17 11:33N 47°13' W 003°31'  

Dump ship's entire track history